Time;durP1;ratioP1;P1;durP2;ratioP2;P2;SDS_P1;SDS_P2;PMS_P1;PMS_P2;Temp;Humidity;BMP_temperature;BMP_pressure;BME280_temperature;BME280_humidity;BME280_pressure;Samples;Min_cycle;Max_cycle;Signal;HPM_P1;HPM_P2
2022/09/11 00:01:47;;;;;;;19.38;16.80;;;;;;;15.76;100.00;101720.34;4893189;29;20056;-81
2022/09/11 00:04:17;;;;;;;18.10;15.52;;;;;;;15.75;100.00;101719.47;4847469;29;20060;-80
2022/09/11 00:06:45;;;;;;;26.67;20.20;;;;;;;15.75;100.00;101723.91;4869744;29;20430;-80
2022/09/11 00:09:13;;;;;;;30.67;22.20;;;;;;;15.72;100.00;101726.53;4871008;29;20045;-81
2022/09/11 00:11:42;;;;;;;21.85;19.33;;;;;;;15.67;100.00;101728.31;4865935;29;20160;-80
2022/09/11 00:14:12;;;;;;;23.88;20.48;;;;;;;15.64;100.00;101723.03;4859891;29;20059;-80
2022/09/11 00:16:44;;;;;;;21.75;19.13;;;;;;;15.58;100.00;101719.50;4862088;29;20032;-79
2022/09/11 00:19:16;;;;;;;22.38;19.08;;;;;;;15.53;100.00;101713.31;4867142;29;20060;-80
2022/09/11 00:21:46;;;;;;;20.70;18.50;;;;;;;15.50;100.00;101715.09;4880585;29;20052;-79
2022/09/11 00:24:14;;;;;;;20.77;18.38;;;;;;;15.46;100.00;101719.53;4863284;29;20049;-80
2022/09/11 00:26:43;;;;;;;21.17;18.95;;;;;;;15.43;100.00;101719.56;4888565;29;20171;-80
2022/09/11 00:29:12;;;;;;;20.38;18.20;;;;;;;15.40;100.00;101720.44;4872512;29;20048;-80
2022/09/11 00:31:42;;;;;;;26.03;19.30;;;;;;;15.38;100.00;101724.00;4865225;29;20351;-80
2022/09/11 00:34:11;;;;;;;23.35;19.00;;;;;;;15.37;100.00;101717.81;4856142;29;20049;-81
2022/09/11 00:36:43;;;;;;;21.00;18.63;;;;;;;15.38;100.00;101724.00;4861539;29;20041;-79
2022/09/11 00:39:13;;;;;;;22.35;17.83;;;;;;;15.39;100.00;101728.44;4873119;29;20045;-81
2022/09/11 00:41:45;;;;;;;21.83;19.00;;;;;;;15.39;100.00;101731.09;4877487;29;20489;-79
2022/09/11 00:44:16;;;;;;;27.23;21.27;;;;;;;15.39;100.00;101731.09;4833693;29;20051;-79
2022/09/11 00:46:52;;;;;;;23.45;19.80;;;;;;;15.38;100.00;101734.63;4853762;29;20395;-79
2022/09/11 00:49:45;;;;;;;20.60;18.40;;;;;;;15.36;100.00;101725.75;4880639;29;20529;-82
2022/09/11 00:52:19;;;;;;;23.73;18.95;;;;;;;15.31;100.00;101720.47;4856871;29;20037;-81
2022/09/11 00:54:55;;;;;;;24.00;18.38;;;;;;;15.30;100.00;101728.44;4875283;29;20048;-81
2022/09/11 00:57:26;;;;;;;22.60;19.48;;;;;;;15.28;100.00;101722.25;4877869;29;20056;-81
2022/09/11 00:59:58;;;;;;;22.17;18.92;;;;;;;15.26;100.00;101724.91;4844096;29;20040;-80
2022/09/11 01:02:30;;;;;;;24.83;19.02;;;;;;;15.27;100.00;101731.09;4877636;29;20052;-81
2022/09/11 01:04:59;;;;;;;26.33;19.67;;;;;;;15.27;100.00;101726.66;4871702;29;20056;-81
2022/09/11 01:07:32;;;;;;;32.13;21.20;;;;;;;15.26;100.00;101726.69;4857062;29;20048;-80
2022/09/11 01:10:06;;;;;;;21.60;18.50;;;;;;;15.25;100.00;101727.56;4882897;29;20052;-81
2022/09/11 01:12:43;;;;;;;22.02;18.63;;;;;;;15.24;100.00;101731.13;4883525;29;20499;-81
2022/09/11 01:15:41;;;;;;;24.80;20.27;;;;;;;15.23;100.00;101730.22;4889229;29;20064;-80
2022/09/11 01:18:13;;;;;;;21.77;19.10;;;;;;;15.20;100.00;101731.13;4852708;29;20166;-80
2022/09/11 01:21:11;;;;;;;22.38;17.60;;;;;;;15.19;100.00;101726.69;4865081;29;20036;-79
2022/09/11 01:23:42;;;;;;;19.35;16.90;;;;;;;15.17;100.00;101728.47;4870410;29;20053;-80
2022/09/11 01:26:43;;;;;;;20.58;16.50;;;;;;;15.17;100.00;101735.53;4864526;29;20076;-80
2022/09/11 01:29:31;;;;;;;20.30;16.98;;;;;;;15.16;100.00;101737.31;4858433;29;20044;-80
2022/09/11 01:32:18;;;;;;;20.17;15.30;;;;;;;15.15;100.00;101735.53;4824416;29;20053;-80
2022/09/11 01:35:07;;;;;;;17.02;14.77;;;;;;;15.15;100.00;101732.00;4854011;29;20407;-80
2022/09/11 01:38:00;;;;;;;16.70;14.68;;;;;;;15.17;100.00;101735.53;4854176;29;20037;-80
2022/09/11 01:40:44;;;;;;;18.35;15.38;;;;;;;15.18;100.00;101729.38;4835696;29;20041;-80
2022/09/11 01:43:22;;;;;;;25.55;14.88;;;;;;;15.20;100.00;101728.47;4815029;29;20263;-80
2022/09/11 01:45:51;;;;;;;16.88;15.00;;;;;;;15.21;100.00;101729.34;4837153;29;20065;-79
2022/09/11 01:48:24;;;;;;;16.33;14.50;;;;;;;15.24;100.00;101731.13;4787395;29;20142;-79
2022/09/11 01:50:57;;;;;;;15.35;13.73;;;;;;;15.26;100.00;101737.31;4849232;29;20042;-79
2022/09/11 01:53:32;;;;;;;14.35;12.95;;;;;;;15.28;100.00;101739.06;4848194;29;20053;-80
2022/09/11 01:56:12;;;;;;;17.40;15.10;;;;;;;15.29;100.00;101731.97;4864876;29;20596;-80
2022/09/11 01:58:44;;;;;;;15.30;13.70;;;;;;;15.29;100.00;101732.88;4847160;29;20045;-80
2022/09/11 02:01:19;;;;;;;18.60;15.25;;;;;;;15.30;100.00;101733.75;4834967;29;20635;-79
2022/09/11 02:03:58;;;;;;;15.20;12.95;;;;;;;15.31;100.00;101732.84;4820276;29;20067;-81
2022/09/11 02:06:33;;;;;;;15.48;13.90;;;;;;;15.30;100.00;101729.31;4855206;29;20049;-79
2022/09/11 02:09:08;;;;;;;15.57;13.05;;;;;;;15.30;100.00;101731.09;4845971;29;20251;-80
2022/09/11 02:11:41;;;;;;;15.32;13.25;;;;;;;15.28;100.00;101730.22;4852906;29;20037;-80
2022/09/11 02:14:23;;;;;;;18.42;13.18;;;;;;;15.27;100.00;101737.28;4844157;29;20060;-80
2022/09/11 02:17:12;;;;;;;14.98;12.45;;;;;;;15.24;100.00;101734.66;4851815;29;20050;-80
2022/09/11 02:19:40;;;;;;;16.15;11.55;;;;;;;15.21;100.00;101742.63;4823329;29;20056;-80
2022/09/11 02:22:09;;;;;;;13.25;11.82;;;;;;;15.19;100.00;101741.72;4835032;29;20049;-80
2022/09/11 02:24:38;;;;;;;13.77;12.15;;;;;;;15.16;100.00;101749.69;4832653;29;20041;-80
2022/09/11 02:27:13;;;;;;;13.85;11.80;;;;;;;15.12;100.00;101743.53;4835023;29;20333;-80
2022/09/11 02:29:42;;;;;;;15.23;12.60;;;;;;;15.08;100.00;101736.44;4838447;29;20054;-81
2022/09/11 02:32:11;;;;;;;16.70;12.43;;;;;;;15.05;100.00;101743.50;4843697;29;20265;-80
2022/09/11 02:34:45;;;;;;;15.30;11.52;;;;;;;15.01;100.00;101750.63;4804880;29;20042;-80
2022/09/11 02:37:35;;;;;;;14.30;12.52;;;;;;;14.97;100.00;101740.88;4836076;29;20254;-80
2022/09/11 02:40:10;;;;;;;12.68;11.48;;;;;;;14.94;100.00;101744.41;4861106;29;20325;-79
2022/09/11 02:43:18;;;;;;;13.77;12.27;;;;;;;14.92;100.00;101746.19;4863295;29;20069;-81
2022/09/11 02:45:53;;;;;;;12.00;10.52;;;;;;;14.89;100.00;101753.25;4852683;29;20052;-80
2022/09/11 02:48:47;;;;;;;19.40;11.60;;;;;;;14.89;100.00;101747.97;4834488;29;20045;-79
2022/09/11 02:52:00;;;;;;;15.95;13.23;;;;;;;14.85;100.00;101755.03;4821964;29;20172;-81
2022/09/11 02:54:52;;;;;;;12.82;11.52;;;;;;;14.81;100.00;101751.50;4824040;29;20053;-79
2022/09/11 02:57:45;;;;;;;13.75;10.75;;;;;;;14.76;100.00;101761.25;4850753;29;20311;-80
2022/09/11 03:00:14;;;;;;;12.65;11.35;;;;;;;14.75;100.00;101756.81;4847904;29;20391;-79
2022/09/11 03:02:43;;;;;;;13.48;11.75;;;;;;;14.74;100.00;101762.09;4844722;29;20041;-79
2022/09/11 03:05:12;;;;;;;12.88;10.80;;;;;;;14.74;100.00;101768.28;4833434;29;20045;-79
2022/09/11 03:07:42;;;;;;;11.77;10.68;;;;;;;14.76;100.00;101761.25;4821154;29;20049;-80
2022/09/11 03:10:10;;;;;;;14.40;11.70;;;;;;;14.77;100.00;101760.34;4842630;29;20065;-80
2022/09/11 03:12:40;;;;;;;13.45;11.43;;;;;;;14.80;100.00;101760.34;4854316;29;20053;-80
2022/09/11 03:15:11;;;;;;;15.10;11.98;;;;;;;14.82;100.00;101763.88;4849317;29;20698;-79
2022/09/11 03:17:42;;;;;;;12.70;11.15;;;;;;;14.82;100.00;101761.22;4845563;29;20052;-79
2022/09/11 03:20:11;;;;;;;13.07;11.38;;;;;;;14.85;100.00;101756.81;4857971;29;20247;-81
2022/09/11 03:22:42;;;;;;;14.13;12.63;;;;;;;14.88;100.00;101759.47;4787693;29;20057;-81
2022/09/11 03:25:11;;;;;;;12.88;11.50;;;;;;;14.87;100.00;101760.34;4809201;29;20073;-80
2022/09/11 03:27:42;;;;;;;13.23;11.32;;;;;;;14.86;100.00;101761.22;4837669;29;20060;-81
2022/09/11 03:30:13;;;;;;;11.98;10.85;;;;;;;14.85;100.00;101763.00;4835563;29;20072;-79
2022/09/11 03:32:41;;;;;;;13.27;11.18;;;;;;;14.84;100.00;101765.63;4847270;29;20045;-80
2022/09/11 03:35:13;;;;;;;13.63;11.13;;;;;;;14.83;100.00;101764.75;4836249;29;20048;-79
2022/09/11 03:37:42;;;;;;;12.88;11.57;;;;;;;14.79;100.00;101760.34;4799575;29;20411;-81
2022/09/11 03:40:11;;;;;;;12.30;11.00;;;;;;;14.77;100.00;101762.13;4844164;29;20496;-78
2022/09/11 03:42:40;;;;;;;13.10;11.60;;;;;;;14.73;100.00;101769.19;4836307;29;20052;-80
2022/09/11 03:45:08;;;;;;;13.32;11.27;;;;;;;14.71;100.00;101781.56;4849193;29;20101;-80
2022/09/11 03:47:37;;;;;;;14.90;11.10;;;;;;;14.67;100.00;101778.91;4846140;29;20524;-80
2022/09/11 03:50:07;;;;;;;11.13;9.95;;;;;;;14.63;100.00;101772.72;4849295;29;20042;-79
2022/09/11 03:52:36;;;;;;;12.25;11.05;;;;;;;14.60;100.00;101778.03;4854223;29;20056;-80
2022/09/11 03:55:07;;;;;;;12.35;11.02;;;;;;;14.56;100.00;101781.53;4818446;29;20056;-81
2022/09/11 03:57:36;;;;;;;12.02;10.80;;;;;;;14.52;100.00;101777.09;4845992;29;20069;-79
2022/09/11 04:00:10;;;;;;;12.27;10.85;;;;;;;14.50;100.00;101781.47;4832932;29;20227;-79
2022/09/11 04:02:48;;;;;;;14.60;11.75;;;;;;;14.46;100.00;101777.06;4833134;29;20045;-79
2022/09/11 04:05:33;;;;;;;11.68;10.50;;;;;;;14.45;100.00;101783.28;4855467;29;20045;-79
2022/09/11 04:08:02;;;;;;;12.02;10.82;;;;;;;14.40;100.00;101780.59;4786039;29;21223;-80
2022/09/11 04:10:33;;;;;;;12.02;9.90;;;;;;;14.37;100.00;101786.78;4841445;29;20050;-80
2022/09/11 04:13:02;;;;;;;10.60;9.60;;;;;;;14.34;100.00;101785.88;4844433;29;20052;-80
2022/09/11 04:15:31;;;;;;;11.70;10.55;;;;;;;14.33;100.00;101792.97;4834939;29;20052;-81
2022/09/11 04:18:00;;;;;;;12.60;11.30;;;;;;;14.30;100.00;101790.28;4844711;29;20508;-79
2022/09/11 04:20:37;;;;;;;12.93;11.50;;;;;;;14.30;100.00;101798.25;4863457;29;20038;-79
2022/09/11 04:23:06;;;;;;;11.95;10.77;;;;;;;14.28;100.00;101800.00;4809787;29;22159;-79
2022/09/11 04:25:37;;;;;;;11.27;10.23;;;;;;;14.27;100.00;101805.31;4840821;29;20049;-79
2022/09/11 04:28:07;;;;;;;11.80;10.63;;;;;;;14.22;100.00;101803.53;4826599;29;20065;-79
2022/09/11 04:30:37;;;;;;;11.52;10.15;;;;;;;14.19;100.00;101805.28;4845187;29;20050;-79
2022/09/11 04:33:06;;;;;;;12.10;10.75;;;;;;;14.15;100.00;101800.84;4837932;29;20089;-79
2022/09/11 04:35:39;;;;;;;12.15;10.98;;;;;;;14.12;100.00;101807.03;4838262;29;20050;-79
2022/09/11 04:38:08;;;;;;;11.73;10.48;;;;;;;14.10;100.00;101806.16;4828588;29;23140;-79
2022/09/11 04:40:41;;;;;;;11.70;10.60;;;;;;;14.09;100.00;101808.78;4819070;29;20054;-80
2022/09/11 04:43:10;;;;;;;11.43;10.25;;;;;;;14.06;100.00;101814.06;4832932;29;20284;-80
2022/09/11 04:45:40;;;;;;;12.57;11.18;;;;;;;14.03;100.00;101823.78;4847069;29;20064;-79
2022/09/11 04:48:10;;;;;;;10.68;9.52;;;;;;;14.01;100.00;101814.06;4850501;29;20801;-80
2022/09/11 04:50:40;;;;;;;12.00;10.80;;;;;;;13.98;100.00;101822.84;4839403;29;20451;-80
2022/09/11 04:53:17;;;;;;;11.75;10.55;;;;;;;13.96;100.00;101821.09;4847020;29;20054;-80
2022/09/11 04:55:49;;;;;;;12.05;10.77;;;;;;;13.96;100.00;101818.44;4818413;29;20037;-79
2022/09/11 04:58:18;;;;;;;12.07;10.63;;;;;;;13.93;100.00;101816.66;4837893;29;20034;-80
2022/09/11 05:00:46;;;;;;;11.43;10.18;;;;;;;13.92;100.00;101820.19;4861939;29;20053;-80
2022/09/11 05:03:16;;;;;;;12.18;10.70;;;;;;;13.91;100.00;101818.41;4854397;29;20049;-80
2022/09/11 05:05:45;;;;;;;11.67;9.97;;;;;;;13.90;100.00;101824.59;4819741;29;20403;-79
2022/09/11 05:08:14;;;;;;;11.98;10.38;;;;;;;13.89;100.00;101813.97;4845734;29;20033;-80
2022/09/11 05:10:42;;;;;;;11.63;10.60;;;;;;;13.88;100.00;101823.69;4791082;29;20271;-79
2022/09/11 05:13:11;;;;;;;11.90;10.63;;;;;;;13.88;100.00;101815.75;4844547;29;20403;-80
2022/09/11 05:15:42;;;;;;;12.13;10.63;;;;;;;13.88;100.00;101815.75;4859950;29;20045;-80
2022/09/11 05:18:11;;;;;;;11.13;9.95;;;;;;;13.89;100.00;101819.28;4857261;29;20076;-80
2022/09/11 05:20:40;;;;;;;11.32;10.07;;;;;;;13.89;100.00;101830.75;4854443;29;20068;-79
2022/09/11 05:23:12;;;;;;;11.57;10.40;;;;;;;13.90;100.00;101836.97;4848332;29;20060;-80
2022/09/11 05:25:42;;;;;;;11.05;9.93;;;;;;;13.91;100.00;101841.38;4807054;29;20301;-79
2022/09/11 05:28:10;;;;;;;11.27;10.07;;;;;;;13.90;100.00;101837.84;4860055;29;20050;-80
2022/09/11 05:30:39;;;;;;;12.73;10.38;;;;;;;13.92;100.00;101845.81;4848118;29;20309;-79
2022/09/11 05:33:07;;;;;;;11.93;9.77;;;;;;;13.93;100.00;101839.63;4875491;29;20389;-80
2022/09/11 05:35:36;;;;;;;10.95;9.85;;;;;;;13.93;100.00;101843.16;4883174;29;20430;-82
2022/09/11 05:38:05;;;;;;;11.13;10.02;;;;;;;13.95;100.00;101851.09;4880910;29;20487;-79
2022/09/11 05:40:33;;;;;;;11.07;9.88;;;;;;;13.96;100.00;101852.88;4818002;29;20038;-78
2022/09/11 05:43:03;;;;;;;11.20;9.60;;;;;;;13.99;100.00;101860.88;4845547;29;20052;-80
2022/09/11 05:45:31;;;;;;;10.90;9.90;;;;;;;14.00;100.00;101855.53;4863471;29;20183;-81
2022/09/11 05:48:02;;;;;;;11.80;10.50;;;;;;;14.07;100.00;101866.19;4831298;29;20072;-79
2022/09/11 05:50:34;;;;;;;16.88;14.35;;;;;;;14.14;100.00;101863.59;4875325;29;20275;-79
2022/09/11 05:53:06;;;;;;;15.52;12.55;;;;;;;14.18;100.00;101867.13;4860391;29;20368;-81
2022/09/11 05:55:36;;;;;;;13.57;12.18;;;;;;;14.22;100.00;101867.16;4822783;29;20048;-79
2022/09/11 05:58:05;;;;;;;11.43;10.10;;;;;;;14.27;100.00;101875.09;4860718;29;20045;-81
2022/09/11 06:00:34;;;;;;;12.10;10.88;;;;;;;14.30;100.00;101874.25;4859224;29;20575;-81
2022/09/11 06:03:03;;;;;;;12.52;11.23;;;;;;;14.35;100.00;101884.00;4861859;29;20057;-81
2022/09/11 06:05:32;;;;;;;12.57;11.27;;;;;;;14.40;100.00;101876.03;4872017;29;20279;-79
2022/09/11 06:08:03;;;;;;;10.60;9.55;;;;;;;14.44;100.00;101888.44;4881370;29;20053;-79
2022/09/11 06:10:32;;;;;;;10.70;9.27;;;;;;;14.48;100.00;101878.72;4838740;29;20054;-79
2022/09/11 06:13:01;;;;;;;9.55;8.75;;;;;;;14.51;100.00;101890.22;4874006;29;20052;-78
2022/09/11 06:15:31;;;;;;;11.18;10.07;;;;;;;14.57;100.00;101885.00;4851960;29;20041;-79
2022/09/11 06:18:15;;;;;;;10.10;9.07;;;;;;;14.62;100.00;101885.88;4883155;29;20490;-81
2022/09/11 06:20:56;;;;;;;10.43;9.52;;;;;;;14.69;100.00;101891.19;4884614;29;20037;-80
2022/09/11 06:23:34;;;;;;;9.73;8.90;;;;;;;14.74;100.00;101892.97;4852744;29;20049;-80
2022/09/11 06:26:11;;;;;;;10.45;9.43;;;;;;;14.78;100.00;101893.88;4834665;29;20045;-80
2022/09/11 06:28:42;;;;;;;9.90;8.93;;;;;;;14.84;100.00;101893.91;4880711;29;20264;-79
2022/09/11 06:31:18;;;;;;;10.63;9.63;;;;;;;14.92;100.00;101900.13;4879571;29;20053;-80
2022/09/11 06:33:47;;;;;;;10.75;9.70;;;;;;;15.00;100.00;101901.00;4849964;29;20061;-80
2022/09/11 06:36:22;;;;;;;10.27;9.32;;;;;;;15.07;100.00;101901.03;4833843;29;20420;-80
2022/09/11 06:38:56;;;;;;;10.07;9.13;;;;;;;15.15;100.00;101894.84;4864777;29;20057;-80
2022/09/11 06:41:27;;;;;;;12.13;10.75;;;;;;;15.24;100.00;101899.28;4826016;29;20157;-80
2022/09/11 06:44:02;;;;;;;10.80;9.35;;;;;;;15.34;100.00;101906.34;4843580;29;20049;-80
2022/09/11 06:46:31;;;;;;;11.88;10.68;;;;;;;15.45;100.00;101901.03;4835516;29;20042;-81
2022/09/11 06:49:01;;;;;;;13.63;11.52;;;;;;;15.73;100.00;101904.59;4846918;29;20065;-81
2022/09/11 06:51:31;;;;;;;10.15;8.63;;;;;;;16.08;100.00;101902.75;4853097;29;20057;-80
2022/09/11 06:54:01;;;;;;;10.27;9.25;;;;;;;16.37;100.00;101903.53;4861159;29;20045;-79
2022/09/11 06:56:33;;;;;;;10.50;9.52;;;;;;;16.69;100.00;101905.19;4795190;29;20789;-80
2022/09/11 06:59:02;;;;;;;11.88;10.65;;;;;;;16.85;100.00;101899.78;4858557;29;20052;-80
2022/09/11 07:01:33;;;;;;;9.82;8.85;;;;;;;16.99;100.00;101900.56;4850327;29;20629;-80
2022/09/11 07:04:03;;;;;;;;;;;;;;;17.08;100.00;101903.19;4854231;29;20037;-80
2022/09/11 07:06:34;;;;;;;9.93;8.93;;;;;;;17.15;100.00;101907.56;4824525;29;20047;-80
2022/09/11 07:09:03;;;;;;;13.57;10.80;;;;;;;17.29;100.00;101906.56;4860200;29;20052;-80
2022/09/11 07:11:43;;;;;;;10.75;9.75;;;;;;;17.52;100.00;101907.28;4826179;29;20229;-80
2022/09/11 07:14:12;;;;;;;10.60;9.63;;;;;;;17.82;100.00;101899.00;4808870;29;20061;-82
2022/09/11 07:16:43;;;;;;;10.80;9.38;;;;;;;18.10;100.00;101910.28;4857891;29;20054;-80
2022/09/11 07:19:13;;;;;;;16.73;10.27;;;;;;;18.29;100.00;101903.81;4848456;29;20049;-82
2022/09/11 07:21:43;;;;;;;11.73;9.63;;;;;;;18.57;100.00;101903.50;4843390;29;20172;-81
2022/09/11 07:24:12;;;;;;;11.63;8.60;;;;;;;18.89;100.00;101899.53;4848137;29;20034;-80
2022/09/11 07:26:43;;;;;;;9.50;7.75;;;;;;;19.16;100.00;101900.88;4846985;29;20049;-79
2022/09/11 07:29:22;;;;;;;10.73;7.03;;;;;;;19.54;100.00;101901.16;4822758;29;20045;-79
2022/09/11 07:31:54;;;;;;;7.90;6.90;;;;;;;19.79;100.00;101901.63;4850285;29;20247;-79
2022/09/11 07:34:23;;;;;;;7.30;6.32;;;;;;;19.95;100.00;101910.25;4864537;29;20064;-79
2022/09/11 07:36:52;;;;;;;7.82;6.28;;;;;;;20.08;100.00;101901.09;4871057;29;20067;-79
2022/09/11 07:39:24;;;;;;;9.80;6.97;;;;;;;20.37;100.00;101903.16;4865158;29;20084;-79
2022/09/11 07:42:07;;;;;;;8.02;6.47;;;;;;;20.65;100.00;101897.25;4858600;29;20536;-80
2022/09/11 07:44:35;;;;;;;9.50;6.78;;;;;;;20.96;100.00;101908.16;4814157;29;20037;-80
2022/09/11 07:47:04;;;;;;;5.90;4.97;;;;;;;21.16;100.00;101898.75;4840042;29;20371;-79
2022/09/11 07:49:39;;;;;;;6.70;5.15;;;;;;;21.03;100.00;101899.03;4848669;29;20049;-80
2022/09/11 07:52:08;;;;;;;7.43;5.82;;;;;;;20.88;100.00;101915.47;4879113;29;20044;-79
2022/09/11 07:54:50;;;;;;;9.38;5.68;;;;;;;20.65;100.00;101905.28;4851171;29;20375;-81
2022/09/11 07:57:23;;;;;;;6.75;5.53;;;;;;;20.43;100.00;101912.84;4882457;29;20044;-79
2022/09/11 07:59:52;;;;;;;6.18;5.25;;;;;;;20.32;100.00;101913.09;4815394;29;20033;-80
2022/09/11 08:02:21;;;;;;;10.25;6.03;;;;;;;20.31;100.00;101913.13;4869317;29;20406;-80
2022/09/11 08:04:50;;;;;;;8.30;5.13;;;;;;;20.24;100.00;101920.38;4850270;29;20050;-80
2022/09/11 08:07:21;;;;;;;5.72;4.68;;;;;;;20.15;100.00;101921.47;4844155;29;20044;-78
2022/09/11 08:09:50;;;;;;;9.57;5.45;;;;;;;20.02;100.00;101923.50;4849297;29;20044;-80
2022/09/11 08:12:40;;;;;;;7.90;5.00;;;;;;;19.98;100.00;101929.81;4852893;29;20052;-79
2022/09/11 08:15:09;;;;;;;7.50;4.00;;;;;;;19.92;100.00;101918.34;4873605;29;20605;-79
2022/09/11 08:17:38;;;;;;;5.78;3.63;;;;;;;19.90;100.00;101922.81;4870434;29;20044;-81
2022/09/11 08:20:08;;;;;;;6.70;3.88;;;;;;;19.98;100.00;101931.59;4847985;29;20068;-81
2022/09/11 08:22:37;;;;;;;5.25;3.95;;;;;;;20.14;100.00;101934.88;4839961;29;20044;-80
2022/09/11 08:25:06;;;;;;;4.70;3.35;;;;;;;20.44;100.00;101926.22;4844868;29;20150;-80
2022/09/11 08:27:36;;;;;;;6.07;3.40;;;;;;;20.71;100.00;101933.72;4872086;29;20045;-79
2022/09/11 08:30:05;;;;;;;5.57;3.97;;;;;;;20.81;100.00;101936.19;4819211;29;20067;-79
2022/09/11 08:32:33;;;;;;;4.55;3.10;;;;;;;20.78;100.00;101930.00;4845954;29;20050;-80
2022/09/11 08:35:02;;;;;;;4.05;3.08;;;;;;;20.79;100.00;101932.66;4826653;29;20723;-79
2022/09/11 08:37:31;;;;;;;3.60;3.25;;;;;;;21.05;100.00;101927.59;4844625;29;20053;-80
2022/09/11 08:40:00;;;;;;;7.22;3.92;;;;;;;21.33;100.00;101939.41;4850053;29;20038;-80
2022/09/11 08:42:31;;;;;;;3.30;2.70;;;;;;;21.54;100.00;101939.84;4828593;29;20026;-79
2022/09/11 08:45:02;;;;;;;8.65;4.18;;;;;;;21.65;100.00;101940.47;4796647;29;20196;-79
2022/09/11 08:47:41;;;;;;;4.47;3.28;;;;;;;21.72;100.00;101941.16;4842818;29;20056;-79
2022/09/11 08:50:23;;;;;;;6.10;2.90;;;;;;;21.85;100.00;101941.72;4858590;29;20045;-79
2022/09/11 08:52:55;;;;;;;4.28;2.30;;;;;;;21.89;100.00;101951.44;4826929;29;20531;-81
2022/09/11 08:55:38;;;;;;;3.45;3.10;;;;;;;21.83;100.00;101948.94;4868788;29;20049;-82
2022/09/11 08:58:17;;;;;;;5.10;2.72;;;;;;;21.73;100.00;101940.25;4840781;29;20057;-80
2022/09/11 09:01:01;;;;;;;4.32;2.85;;;;;;;21.63;100.00;101953.03;4813028;29;20475;-80
2022/09/11 09:03:42;;;;;;;5.78;3.03;;;;;;;21.55;100.00;101947.88;4849933;29;20494;-81
2022/09/11 09:06:23;;;;;;;4.78;2.30;;;;;;;21.51;100.00;101948.88;4837968;29;20053;-80
2022/09/11 09:09:23;;;;;;;4.75;2.83;;;;;;;21.48;100.00;101953.41;4863898;29;20045;-80
2022/09/11 09:12:21;;;;;;;4.70;3.28;;;;;;;21.38;100.00;101955.41;4845317;29;20471;-81
2022/09/11 09:15:06;;;;;;;4.63;2.78;;;;;;;21.25;100.00;101957.50;4832239;29;20245;-79
2022/09/11 09:17:42;;;;;;;6.65;2.28;;;;;;;21.18;100.00;101963.91;4828402;29;20053;-81
2022/09/11 09:20:19;;;;;;;3.75;2.83;;;;;;;21.20;100.00;101962.09;4854533;29;20080;-81
2022/09/11 09:22:56;;;;;;;2.63;2.40;;;;;;;21.16;100.00;101963.94;4866620;29;20456;-81
2022/09/11 09:25:33;;;;;;;5.07;2.72;;;;;;;21.11;100.00;101955.13;4833755;29;20328;-81
2022/09/11 09:28:25;;;;;;;4.95;2.60;;;;;;;21.07;100.00;101950.75;4830341;29;20060;-80
2022/09/11 09:31:04;;;;;;;6.68;3.30;;;;;;;20.95;100.00;101962.66;4852860;29;20057;-82
2022/09/11 09:33:45;;;;;;;6.30;2.88;;;;;;;20.83;100.00;101970.94;4855386;29;20048;-81
2022/09/11 09:36:44;;;;;;;5.05;2.83;;;;;;;20.91;100.00;101957.41;4871767;29;20052;-81
2022/09/11 09:39:14;;;;;;;5.15;2.60;;;;;;;21.01;100.00;101964.31;4907558;29;20053;-83
2022/09/11 09:41:58;;;;;;;6.05;2.33;;;;;;;21.13;100.00;101964.00;4894775;29;20055;-84
2022/09/11 09:44:49;;;;;;;4.95;2.45;;;;;;;21.20;100.00;101962.97;4893718;29;20044;-81
2022/09/11 09:47:17;;;;;;;6.82;3.10;;;;;;;21.22;100.00;101962.94;4867477;29;20049;-80
2022/09/11 09:49:46;;;;;;;4.25;2.17;;;;;;;21.15;100.00;101963.97;4878410;29;20037;-82
2022/09/11 09:52:15;;;;;;;3.85;2.28;;;;;;;21.10;100.00;101964.09;4891435;29;20140;-82
2022/09/11 09:54:59;;;;;;;4.93;2.22;;;;;;;21.14;100.00;101960.44;4900355;29;20051;-82
2022/09/11 09:57:32;;;;;;;5.25;3.40;;;;;;;21.13;100.00;101969.38;4880725;29;20258;-81
2022/09/11 10:00:05;;;;;;;7.07;2.58;;;;;;;21.12;100.00;101975.66;4832905;29;20056;-82
2022/09/11 10:02:50;;;;;;;5.28;2.70;;;;;;;21.13;100.00;101966.69;4874278;29;20071;-81
2022/09/11 10:05:32;;;;;;;3.35;2.72;;;;;;;21.25;100.00;101970.91;4846246;29;20056;-81
2022/09/11 10:08:03;;;;;;;13.00;2.80;;;;;;;21.33;100.00;101960.88;4876236;29;20041;-82
2022/09/11 10:10:37;;;;;;;2.67;2.42;;;;;;;21.38;100.00;101964.34;4873084;29;20610;-82
2022/09/11 10:13:23;;;;;;;3.58;2.22;;;;;;;21.48;100.00;101975.75;4869601;29;20045;-82
2022/09/11 10:15:55;;;;;;;2.58;2.10;;;;;;;21.54;100.00;101963.97;4879896;29;20041;-82
2022/09/11 10:18:36;;;;;;;4.50;2.00;;;;;;;21.65;100.00;101966.41;4862712;29;20070;-81
2022/09/11 10:21:10;;;;;;;4.90;1.75;;;;;;;21.71;100.00;101969.78;4851485;29;20525;-82
2022/09/11 10:23:52;;;;;;;3.00;1.73;;;;;;;21.54;100.00;101966.66;4886724;29;20044;-83
2022/09/11 10:26:36;;;;;;;2.10;1.88;;;;;;;21.40;100.00;101973.22;4874988;29;20562;-82
2022/09/11 10:29:10;;;;;;;2.95;1.70;;;;;;;21.36;100.00;101971.53;4885498;29;20049;-83
2022/09/11 10:31:47;;;;;;;4.20;1.80;;;;;;;21.44;100.00;101968.69;4838547;29;20055;-81
2022/09/11 10:34:19;;;;;;;3.17;2.40;;;;;;;21.54;100.00;101975.59;4874702;29;20060;-80
2022/09/11 10:36:59;;;;;;;5.00;2.00;;;;;;;21.69;100.00;101973.44;4879973;29;20056;-83
2022/09/11 10:39:35;;;;;;;2.95;1.80;;;;;;;21.70;100.00;101968.06;4879326;29;20079;-83
2022/09/11 10:42:15;;;;;;;3.95;1.80;;;;;;;21.64;100.00;101975.34;4887883;29;20055;-82
2022/09/11 10:44:46;;;;;;;1.90;1.80;;;;;;;21.46;100.00;101974.91;4872843;29;20044;-81
2022/09/11 10:47:25;;;;;;;3.35;1.60;;;;;;;21.37;100.00;101972.41;4884262;29;20063;-83
2022/09/11 10:50:19;;;;;;;3.42;1.55;;;;;;;21.13;99.59;101971.19;4897913;29;20063;-82
2022/09/11 10:52:57;;;;;;;4.20;1.83;;;;;;;21.03;100.00;101970.50;4866077;29;20514;-85
2022/09/11 10:55:31;;;;;;;2.88;2.50;;;;;;;21.04;100.00;101980.31;4869920;29;20053;-83
2022/09/11 10:58:22;;;;;;;3.17;2.28;;;;;;;21.01;100.00;101972.34;4858756;29;20056;-83
2022/09/11 11:00:51;;;;;;;2.08;1.88;;;;;;;21.06;100.00;101977.59;4873150;29;20048;-83
2022/09/11 11:03:25;;;;;;;9.27;2.72;;;;;;;21.11;100.00;101976.56;4842084;29;20546;-84
2022/09/11 11:06:13;;;;;;;4.93;2.35;;;;;;;21.15;100.00;101980.06;4864970;29;20061;-83
2022/09/11 11:08:57;;;;;;;4.45;2.17;;;;;;;21.14;100.00;101975.63;4896367;29;20060;-83
2022/09/11 11:11:54;;;;;;;5.47;3.33;;;;;;;21.13;100.00;101971.19;4880572;29;20430;-83
2022/09/11 11:14:36;;;;;;;7.22;2.90;;;;;;;21.00;100.00;101971.47;4875753;29;20057;-84
2022/09/11 11:17:17;;;;;;;5.03;3.08;;;;;;;20.93;100.00;101979.69;4879839;29;20438;-83
2022/09/11 11:20:13;;;;;;;4.53;3.05;;;;;;;20.78;100.00;101976.41;4866482;29;20507;-84
2022/09/11 11:22:57;;;;;;;4.57;3.13;;;;;;;20.69;100.00;101975.72;4828454;29;20049;-80
2022/09/11 11:26:02;;;;;;;3.80;2.97;;;;;;;20.61;100.00;101975.91;4877657;29;20040;-84
2022/09/11 11:28:45;;;;;;;4.93;4.03;;;;;;;20.51;100.00;101982.28;4849360;29;20048;-85
2022/09/11 11:31:47;;;;;;;6.20;3.50;;;;;;;20.40;100.00;101980.72;4868582;29;20075;-82
2022/09/11 11:34:39;;;;;;;5.57;3.15;;;;;;;20.36;100.00;101980.81;4872123;29;20300;-82
2022/09/11 11:37:14;;;;;;;5.30;3.30;;;;;;;20.31;100.00;101977.34;4837250;29;20045;-81
2022/09/11 11:39:52;;;;;;;3.25;2.55;;;;;;;20.25;100.00;101981.03;4900080;29;20059;-82
2022/09/11 11:42:33;;;;;;;4.72;3.58;;;;;;;20.19;100.00;101983.84;4889016;29;20406;-83
2022/09/11 11:45:26;;;;;;;6.97;2.95;;;;;;;20.12;100.00;101979.50;4870536;29;20033;-82